Flight Track Log - Related Links

Times and Time Zones

All times are in EDT time to prevent confusion due to time zone crossing. See the N228TR flight status page for this flight to view local times or setup timezone preferences in your user account.

Time Position Orientation Groundspeed Altitude Reporting Facility
EDT Latitude Longitude Course Direction KTS MPH feet Rate Location/Type
Sun 09:03:22 PM 40.8333 -74.1167 246° West 99 114 1,200  Level New York TRACON
Sun 09:04:17 PM 40.8167 -74.1333 217° Southwest 107 123 1,600 579 Climbing New York TRACON
Sun 09:05:16 PM 40.8167 -74.1667 270° West 99 114 2,300 672 Climbing New York TRACON
Sun 09:06:22 PM 40.8000 -74.2167 246° West 103 119 3,000 571 Climbing New York TRACON
Sun 09:07:22 PM 40.7833 -74.2500 237° Southwest 113 130 3,500 470 Climbing New York TRACON
Sun 09:08:00 PM 40.7603 -74.3024 246° West  Level FlightAware Approximate
Sun 09:08:17 PM 40.7667 -74.2833 237° Southwest 118 136 3,900  Level New York TRACON
Sun 09:09:22 PM 40.7500 -74.3167 237° Southwest 133 153 4,100 96 Climbing New York TRACON
Sun 09:10:22 PM 40.7333 -74.3667 246° West 143 165 4,100  Level New York TRACON
Sun 09:11:22 PM 40.7167 -74.4167 246° West 147 169 4,100 250 Level New York TRACON
Sun 09:12:22 PM 40.7000 -74.4500 237° Southwest 127 146 4,600 496 Climbing New York TRACON
Sun 09:13:23 PM 40.6833 -74.5000 246° West 119 137 5,100 22 Climbing New York TRACON
Sun 09:15:00 PM 40.6615 -74.5853 251° West  Level FlightAware Approximate
Sun 09:22:00 PM 40.5663 -74.9539 251° West  Level FlightAware Approximate
Sun 09:23:00 PM 40.5527 -75.0065 251° West  Level FlightAware Approximate
Sun 09:24:00 PM 40.5504 -75.0619 272° West  Level FlightAware Approximate
Sun 09:25:00 PM 40.5519 -75.1174 272° West  Level FlightAware Approximate
Sun 09:26:00 PM 40.5535 -75.1730 272° West  Level FlightAware Approximate
Sun 09:27:00 PM 40.5550 -75.2285 272° West  Level FlightAware Approximate
Sun 09:28:00 PM 40.5566 -75.2841 272° West  Level FlightAware Approximate
Sun 09:29:00 PM 40.5580 -75.3396 272° West  Level FlightAware Approximate
Sun 09:30:00 PM 40.5595 -75.3952 272° West  Level FlightAware Approximate
Sun 09:31:00 PM 40.5610 -75.4507 272° West  Level FlightAware Approximate
Sun 09:32:00 PM 40.5624 -75.5063 272° West  Level FlightAware Approximate
Sun 09:33:00 PM 40.5637 -75.5618 272° West  Level FlightAware Approximate
Sun 09:34:00 PM 40.5651 -75.6174 272° West  Level FlightAware Approximate
Sun 09:35:00 PM 40.5664 -75.6729 272° West  Level FlightAware Approximate
Sun 09:36:00 PM 40.5549 -75.7258 250° West  Level FlightAware Approximate
Sun 09:37:00 PM 40.5405 -75.7780 250° West  Level FlightAware Approximate
Sun 09:38:00 PM 40.5260 -75.8302 250° West  Level FlightAware Approximate
Sun 09:39:00 PM 40.5115 -75.8824 250° West  Level FlightAware Approximate
Sun 09:40:00 PM 40.4970 -75.9345 250° West  Level FlightAware Approximate
Sun 09:41:00 PM 40.4828 -75.9868 259° West  Level FlightAware Approximate
Sun 09:42:00 PM 40.4751 -76.0413 259° West  Level FlightAware Approximate
Sun 09:43:00 PM 40.4673 -76.0959 259° West  Level FlightAware Approximate
Sun 09:44:00 PM 40.4545 -76.1488 252° West  Level FlightAware Approximate
Sun 09:45:00 PM 40.4388 -76.2002 246° West  Level FlightAware Approximate
Sun 09:46:00 PM 40.4219 -76.2511 246° West  Level FlightAware Approximate
Sun 09:47:00 PM 40.4049 -76.3018 246° West  Level FlightAware Approximate
Sun 09:48:00 PM 40.3901 -76.3537 251° West  Level FlightAware Approximate
Sun 09:49:00 PM 40.3761 -76.4060 251° West  Level FlightAware Approximate
Sun 09:50:00 PM 40.3621 -76.4583 251° West  Level FlightAware Approximate
Sun 09:51:00 PM 40.3480 -76.5106 251° West  Level FlightAware Approximate
Sun 09:52:00 PM 40.3340 -76.5628 251° West  Level FlightAware Approximate
Sun 09:53:00 PM 40.3199 -76.6150 251° West  Level FlightAware Approximate
Sun 09:54:00 PM 40.3058 -76.6672 250° West  Level FlightAware Approximate
Sun 09:55:00 PM 40.2916 -76.7194 250° West  Level FlightAware Approximate
Sun 09:56:00 PM 40.2846 -76.7728 274° West  Level FlightAware Approximate
Sun 09:57:00 PM 40.2875 -76.8280 274° West  Level FlightAware Approximate
Sun 09:58:00 PM 40.2905 -76.8832 274° West  Level FlightAware Approximate
Sun 09:59:00 PM 40.2934 -76.9385 274° West  Level FlightAware Approximate
Sun 10:00:00 PM 40.2962 -76.9937 274° West  Level FlightAware Approximate
Sun 10:01:00 PM 40.2991 -77.0489 274° West  Level FlightAware Approximate
Sun 10:02:00 PM 40.2944 -77.1052 259° West  Level FlightAware Approximate
Sun 10:03:00 PM 40.2863 -77.1604 259° West  Level FlightAware Approximate
Sun 10:04:00 PM 40.2782 -77.2157 259° West  Level FlightAware Approximate
Sun 10:05:00 PM 40.2701 -77.2709 259° West  Level FlightAware Approximate
Sun 10:06:00 PM 40.2620 -77.3261 259° West  Level FlightAware Approximate
Sun 10:07:00 PM 40.2538 -77.3813 259° West  Level FlightAware Approximate
Sun 10:08:00 PM 40.2456 -77.4365 259° West  Level FlightAware Approximate
Sun 10:09:00 PM 40.2374 -77.4916 259° West  Level FlightAware Approximate
Sun 10:10:00 PM 40.2292 -77.5468 259° West  Level FlightAware Approximate
Sun 10:11:00 PM 40.2209 -77.6019 259° West  Level FlightAware Approximate
Sun 10:12:00 PM 40.2126 -77.6571 259° West  Level FlightAware Approximate
Sun 10:13:00 PM 40.2043 -77.7122 259° West  Level FlightAware Approximate
Sun 10:14:00 PM 40.1959 -77.7673 259° West  Level FlightAware Approximate
Sun 10:15:00 PM 40.1875 -77.8224 259° West  Level FlightAware Approximate
Sun 10:16:00 PM 40.1796 -77.8775 260° West  Level FlightAware Approximate
Sun 10:16:20 PM 40.2128 -77.6439 260° West 148 170 6,000  Level Cleveland Center
Sun 10:17:00 PM 40.1722 -77.9328 260° West  Level FlightAware Approximate
Sun 10:17:26 PM 40.2061 -77.7094 262° West 153 176 6,100  Level Cleveland Center
Sun 10:18:00 PM 40.1647 -77.9881 260° West  Level FlightAware Approximate
Sun 10:18:27 PM 40.1950 -77.7697 256° West 155 178 6,000  Level Cleveland Center
Sun 10:19:00 PM 40.1573 -78.0434 260° West  Level FlightAware Approximate
Sun 10:19:28 PM 40.1881 -77.8244 261° West 154 177 6,000  Level Cleveland Center
Sun 10:20:00 PM 40.1498 -78.0987 260° West  Level FlightAware Approximate
Sun 10:20:28 PM 40.1831 -77.8792 263° West 155 178 6,000  Level Cleveland Center
Sun 10:21:00 PM 40.1422 -78.1539 260° West  Level FlightAware Approximate
Sun 10:21:29 PM 40.1761 -77.9336 261° West 152 175 6,000  Level Cleveland Center
Sun 10:22:29 PM 40.1711 -77.9883 263° West 152 175 6,000  Level Cleveland Center
Sun 10:23:30 PM 40.1619 -78.0456 258° West 153 176 6,000 49 Level Cleveland Center
Sun 10:24:31 PM 40.1569 -78.1003 263° West 154 177 6,100  Climbing Cleveland Center
Sun 10:25:31 PM 40.1517 -78.1547 263° West 153 176 6,000  Descending Cleveland Center
Sun 10:26:32 PM 40.1425 -78.2094 258° West 151 174 6,100  Climbing Cleveland Center
Sun 10:27:32 PM 40.1333 -78.2639 258° West 149 171 6,000 -50 Descending Cleveland Center
Sun 10:28:33 PM 40.1239 -78.3186 257° West 150 173 6,000 49 Level Cleveland Center
Sun 10:29:34 PM 40.1167 -78.3706 260° West 148 170 6,100  Climbing Cleveland Center
Sun 10:30:34 PM 40.1069 -78.4197 256° West 146 168 6,000 -50 Descending Cleveland Center
Sun 10:31:35 PM 40.0978 -78.4769 258° West 150 173 6,000  Level Cleveland Center
Sun 10:32:35 PM 40.0925 -78.5314 263° West 149 171 6,000  Level Cleveland Center
Sun 10:33:36 PM 40.0831 -78.5806 256° West 147 169 6,000 49 Level Cleveland Center
Sun 10:34:37 PM 40.0775 -78.6322 262° West 145 167 6,100  Climbing Cleveland Center
Sun 10:35:37 PM 40.0700 -78.6839 259° West 147 169 6,000 -50 Descending Cleveland Center
Sun 10:36:38 PM 40.0586 -78.7414 256° West 148 170 6,000  Level Cleveland Center
Sun 10:37:38 PM 40.0553 -78.7931 265° West 147 169 6,000  Level Cleveland Center
Sun 10:38:39 PM 40.0478 -78.8447 259° West 146 168 6,000 49 Level Cleveland Center
Sun 10:39:40 PM 40.0400 -78.8992 259° West 146 168 6,100  Climbing Cleveland Center
Sun 10:40:40 PM 40.0325 -78.9536 260° West 149 171 6,000 -50 Descending Cleveland Center
Sun 10:41:41 PM 40.0269 -79.0053 262° West 149 171 6,000 50 Level Cleveland Center
Sun 10:42:41 PM 40.0236 -79.0594 265° West 145 167 6,100  Climbing Cleveland Center
Sun 10:43:42 PM 40.0158 -79.1111 259° West 150 173 6,000 -49 Descending Cleveland Center
Sun 10:44:43 PM 40.0064 -79.1708 258° West 150 173 6,000 50 Level Cleveland Center
Sun 10:45:43 PM 39.9986 -79.2172 258° West 146 168 6,100 50 Climbing Cleveland Center
Sun 10:46:44 PM 39.9908 -79.2689 259° West 147 169 6,100  Level Cleveland Center
Sun 10:47:45 PM 39.9872 -79.3231 265° West 147 169 6,100 -50 Level Cleveland Center
Sun 10:48:45 PM 39.9817 -79.3747 262° West 146 168 6,000  Descending Cleveland Center
Sun 10:50:00 PM 39.9657 -79.4380 252° West  Level FlightAware Approximate
Sun 10:56:48 PM 39.9183 -79.7819 258° West 155 178 6,100  Level Cleveland Center
Sun 10:57:00 PM 39.9067 -79.8036 260° West  Level FlightAware Approximate
Sun 10:57:48 PM 39.9125 -79.8333 262° West 155 178 6,100  Level Cleveland Center
Sun 10:58:00 PM 39.8991 -79.8559 258° West  Level FlightAware Approximate
Sun 10:58:48 PM 39.9067 -79.8847 262° West 155 178 6,000  Level Cleveland Center
Sun 10:59:00 PM 39.8909 -79.9080 258° West  Level FlightAware Approximate
Sun 10:59:48 PM 39.9006 -79.9364 261° West 150 173 6,100  Level Cleveland Center
Sun 11:00:00 PM 39.8827 -79.9602 258° West  Level FlightAware Approximate
Sun 11:00:48 PM 39.8906 -79.9878 256° West 150 173 6,100  Level Cleveland Center
Sun 11:01:00 PM 39.8745 -80.0123 258° West  Level FlightAware Approximate
Sun 11:01:48 PM 39.8803 -80.0367 255° West 144 166 6,100  Level Cleveland Center
Sun 11:02:48 PM 39.8703 -80.0881 256° West 144 166 6,100  Level Cleveland Center
Sun 11:03:48 PM 39.8600 -80.1369 255° West 144 166 6,100  Level Cleveland Center
Sun 11:04:48 PM 39.8558 -80.1883 264° West 144 166 6,100 50 Level Cleveland Center
Sun 11:05:48 PM 39.8500 -80.2425 262° West 144 166 6,200  Climbing Cleveland Center
Sun 11:06:48 PM 39.8417 -80.2911 257° West 144 166 6,100 -50 Descending Cleveland Center
Sun 11:07:48 PM 39.8333 -80.3425 258° West 144 166 6,100  Level Cleveland Center
Sun 11:08:48 PM 39.8272 -80.3967 262° West 144 166 6,100  Level Cleveland Center
Sun 11:09:48 PM 39.8189 -80.4481 258° West 144 166 6,100  Level Cleveland Center
Sun 11:10:48 PM 39.8108 -80.5019 259° West 144 166 6,100  Level Cleveland Center
Sun 11:11:48 PM 39.8044 -80.5506 260° West 144 166 6,100  Level Cleveland Center
Sun 11:12:48 PM 39.7961 -80.6047 259° West 144 166 6,100  Level Cleveland Center
Sun 11:13:48 PM 39.7858 -80.6586 256° West 144 166 6,100  Level Cleveland Center
Sun 11:14:48 PM 39.7772 -80.7100 258° West 144 166 6,100 50 Level Cleveland Center
Sun 11:15:48 PM 39.7689 -80.7642 259° West 149 171 6,200 50 Climbing Cleveland Center
Sun 11:16:48 PM 39.7583 -80.8153 255° West 149 171 6,200  Level Cleveland Center
Sun 11:17:48 PM 39.7500 -80.8667 258° West 144 166 6,200 -50 Level Cleveland Center
Sun 11:18:48 PM 39.7414 -80.9206 258° West 144 166 6,100 -50 Descending Cleveland Center
Sun 11:19:48 PM 39.7289 -80.9692 252° West 144 166 6,100  Level Cleveland Center
Sun 11:20:48 PM 39.7183 -81.0175 254° West 144 166 6,100  Level Cleveland Center
Sun 11:22:16 PM 39.7028 -81.0994 256° West 145 167 6,100  Level Indianapolis Center
Sun 11:23:17 PM 39.6933 -81.1500 256° West 144 166 6,100 -50 Level Indianapolis Center
Sun 11:24:17 PM 39.6858 -81.2033 260° West 149 171 6,000 -50 Descending Indianapolis Center
Sun 11:25:18 PM 39.6769 -81.2531 257° West 144 166 6,000 49 Level Indianapolis Center
Sun 11:26:19 PM 39.6681 -81.3042 257° West 145 167 6,100  Climbing Indianapolis Center
Sun 11:27:19 PM 39.6583 -81.3556 256° West 146 168 6,000  Descending Indianapolis Center
Sun 11:28:20 PM 39.6469 -81.4028 253° West 139 160 6,100 49 Climbing Indianapolis Center
Sun 11:29:21 PM 39.6367 -81.4531 255° West 144 166 6,100  Level Indianapolis Center
Sun 11:30:21 PM 39.6289 -81.5058 259° West 148 170 6,100  Level Indianapolis Center
Sun 11:31:22 PM 39.6161 -81.5675 255° West 148 170 6,100  Level Indianapolis Center
Sun 11:32:22 PM 39.6092 -81.6181 260° West 144 166 6,100 50 Level Indianapolis Center
Sun 11:33:23 PM 39.6008 -81.6686 258° West 144 166 6,200  Climbing Indianapolis Center
Sun 11:34:23 PM 39.5922 -81.7222 258° West 150 173 6,100 -50 Descending Indianapolis Center
Sun 11:35:24 PM 39.5839 -81.7736 258° West 147 169 6,100  Level Indianapolis Center
Sun 11:36:24 PM 39.5747 -81.8242 257° West 145 167 6,100  Level Indianapolis Center
Sun 11:37:25 PM 39.5656 -81.8767 257° West 147 169 6,100  Level Indianapolis Center
Sun 11:38:25 PM 39.5558 -81.9294 257° West 150 173 6,100 -50 Level Indianapolis Center
Sun 11:39:25 PM 39.5472 -81.9817 258° West 149 171 6,000 -50 Descending Indianapolis Center
Sun 11:40:26 PM 39.5383 -82.0339 258° West 149 171 6,000 50 Level Indianapolis Center
Sun 11:41:26 PM 39.5294 -82.0853 257° West 147 169 6,100  Climbing Indianapolis Center
Sun 11:42:27 PM 39.5203 -82.1339 256° West 150 173 6,000 -99 Descending Indianapolis Center
Sun 11:43:27 PM 39.5100 -82.1875 256° West 151 174 5,900  Descending Indianapolis Center
Sun 11:44:28 PM 39.5019 -82.2386 258° West 148 170 6,000 50 Climbing Indianapolis Center
Sun 11:45:28 PM 39.4928 -82.2931 258° West 150 173 6,000  Level Indianapolis Center
Sun 11:46:29 PM 39.4839 -82.3472 258° West 153 176 6,000 -61 Level Indianapolis Center
Sun 11:47:07 PM 39.4772 -82.3878 258° West 150 173 5,900  Descending Indianapolis Center
Sun 11:48:08 PM 39.4703 -82.4408 260° West 152 175 6,000 49 Climbing Indianapolis Center
Sun 11:49:09 PM 39.4611 -82.4964 258° West 152 175 6,000 50 Level Indianapolis Center
Sun 11:50:09 PM 39.4519 -82.5492 257° West 153 176 6,100  Climbing Indianapolis Center
Sun 11:51:31 PM 39.4381 -82.6131 254° West 149 171 6,000 -42 Descending Indianapolis Center
Sun 11:52:31 PM 39.4275 -82.6667 256° West 151 174 6,000  Level Indianapolis Center
Sun 11:53:31 PM 39.4197 -82.7214 260° West 153 176 6,000  Level Indianapolis Center
Sun 11:54:32 PM 39.4106 -82.7742 257° West 150 173 6,000  Level Indianapolis Center
Sun 11:55:32 PM 39.3989 -82.8269 254° West 150 173 6,000 -50 Level Indianapolis Center
Sun 11:56:32 PM 39.3881 -82.8800 255° West 151 174 5,900  Descending Indianapolis Center
Sun 11:57:33 PM 39.3806 -82.9336 260° West 152 175 6,000 50 Climbing Indianapolis Center
Sun 11:58:33 PM 39.3722 -82.9875 259° West 151 174 6,000  Level Indianapolis Center
Sun 11:59:34 PM 39.3628 -83.0392 257° West 148 170 6,000 50 Level Indianapolis Center
Mon 12:00:34 AM 39.3519 -83.0908 255° West 147 169 6,100  Climbing Indianapolis Center
Mon 12:01:34 AM 39.3450 -83.1433 260° West 147 169 6,000  Descending Indianapolis Center
Mon 12:02:35 AM 39.3367 -83.1981 259° West 151 174 6,100 50 Climbing Indianapolis Center
Mon 12:03:35 AM 39.3306 -83.2517 262° West 151 174 6,100  Level Indianapolis Center
Mon 12:04:35 AM 39.3225 -83.3031 259° West 147 169 6,100 -50 Level Indianapolis Center
Mon 12:05:36 AM 39.3150 -83.3569 260° West 149 171 6,000 -50 Descending Indianapolis Center
Mon 12:06:36 AM 39.3050 -83.4092 256° West 149 171 6,000  Level Indianapolis Center
Mon 12:07:36 AM 39.2969 -83.4511 256° West 146 168 6,000  Level Indianapolis Center
Mon 12:08:36 AM 39.2847 -83.5111 255° West 145 167 6,000  Level Indianapolis Center
Mon 12:09:37 AM 39.2717 -83.5622 252° West 147 169 6,000 50 Level Indianapolis Center
Mon 12:10:37 AM 39.2614 -83.6133 255° West 147 169 6,100  Climbing Indianapolis Center
Mon 12:11:37 AM 39.2522 -83.6644 257° West 146 168 6,000 -50 Descending Indianapolis Center
Mon 12:12:38 AM 39.2433 -83.7150 257° West 146 168 6,000  Level Indianapolis Center
Mon 12:13:38 AM 39.2339 -83.7672 257° West 147 169 6,000  Level Indianapolis Center
Mon 12:14:38 AM 39.2286 -83.8139 262° West 147 169 6,000  Level Indianapolis Center
Mon 12:15:38 AM 39.2242 -83.8656 264° West 146 168 6,000 50 Level Indianapolis Center
Mon 12:16:39 AM 39.2175 -83.9228 261° West 144 166 6,100  Climbing Indianapolis Center
Mon 12:17:39 AM 39.2133 -83.9792 265° West 149 171 6,000 -150 Descending Indianapolis Center
Mon 12:18:39 AM 39.2111 -84.0267 267° West 150 173 5,800 -397 Descending Indianapolis Center
Mon 12:19:40 AM 39.2061 -84.0875 264° West 166 191 5,200 -595 Descending Indianapolis Center
Mon 12:20:40 AM 39.2011 -84.1464 264° West 166 191 4,600 -750 Descending Indianapolis Center
Mon 12:21:40 AM 39.1942 -84.2025 261° West 160 184 3,700 -850 Descending Indianapolis Center
Mon 12:22:40 AM 39.1814 -84.2533 252° West 155 178 2,900 -545 Descending Indianapolis Center
Mon 12:23:41 AM 39.1614 -84.3053 244° Southwest 152 175 2,600 -295 Descending Indianapolis Center

Login

Don't have an account? Register now (free) for customized features, flight alerts, and more!